Time;durP1;ratioP1;P1;durP2;ratioP2;P2;SDS_P1;SDS_P2;PMS_P1;PMS_P2;Temp;Humidity;BMP_temperature;BMP_pressure;BME280_temperature;BME280_humidity;BME280_pressure;Samples;Min_cycle;Max_cycle;Signal;HPM_P1;HPM_P2
2024/01/28 00:02:17;;;;;;;17.88;8.15;;;;;;;-0.83;100.00;103218.09;5068087;28;20046;-68
2024/01/28 00:04:45;;;;;;;17.33;9.32;;;;;;;-0.79;100.00;103204.50;5046184;28;20041;-68
2024/01/28 00:07:12;;;;;;;20.02;8.05;;;;;;;-0.75;100.00;103190.91;5054523;28;20120;-68
2024/01/28 00:09:39;;;;;;;20.85;8.50;;;;;;;-0.70;100.00;103188.56;5067125;28;20119;-68
2024/01/28 00:12:06;;;;;;;22.52;8.85;;;;;;;-0.69;100.00;103198.13;5066481;28;20515;-68
2024/01/28 00:14:34;;;;;;;18.63;8.43;;;;;;;-0.66;100.00;103195.69;5065181;28;20044;-68
2024/01/28 00:17:01;;;;;;;18.33;9.25;;;;;;;-0.67;100.00;103189.63;5065693;28;20036;-68
2024/01/28 00:19:28;;;;;;;19.17;8.88;;;;;;;-0.66;100.00;103191.41;5066114;28;20815;-68
2024/01/28 00:21:55;;;;;;;23.77;10.07;;;;;;;-0.66;100.00;103188.81;5073601;28;20048;-68
2024/01/28 00:24:23;;;;;;;23.50;8.57;;;;;;;-0.68;100.00;103174.91;5023495;28;20547;-68
2024/01/28 00:26:51;;;;;;;21.48;8.68;;;;;;;-0.71;100.00;103166.94;5048281;28;20043;-68
2024/01/28 00:29:20;;;;;;;19.35;8.38;;;;;;;-0.74;100.00;103169.38;5067933;28;20531;-67
2024/01/28 00:31:47;;;;;;;20.63;8.55;;;;;;;-0.76;100.00;103165.78;5067573;28;20037;-67
2024/01/28 00:34:16;;;;;;;15.38;8.35;;;;;;;-0.77;100.00;103163.13;5067008;28;20063;-67
2024/01/28 00:36:43;;;;;;;19.85;8.27;;;;;;;-0.79;100.00;103158.75;5082355;28;20069;-67
2024/01/28 00:39:13;;;;;;;26.02;8.38;;;;;;;-0.83;100.00;103153.34;5058605;28;20581;-65
2024/01/28 00:41:40;;;;;;;17.00;8.70;;;;;;;-0.90;100.00;103144.34;5066480;28;20114;-67
2024/01/28 00:44:07;;;;;;;20.77;9.30;;;;;;;-0.96;100.00;103144.03;5068879;28;20055;-67
2024/01/28 00:46:34;;;;;;;19.85;8.20;;;;;;;-0.99;100.00;103131.81;5048459;28;20049;-67
2024/01/28 00:49:02;;;;;;;17.83;8.40;;;;;;;-0.98;100.00;103132.69;5067040;28;20188;-67
2024/01/28 00:51:31;;;;;;;16.50;8.82;;;;;;;-0.96;100.00;103125.88;5073982;28;20044;-67
2024/01/28 00:53:59;;;;;;;21.15;8.95;;;;;;;-0.94;100.00;103129.47;5066786;28;20127;-67
2024/01/28 00:56:26;;;;;;;23.85;9.82;;;;;;;-0.93;100.00;103136.44;5067046;28;20420;-67
2024/01/28 00:58:54;;;;;;;20.83;8.88;;;;;;;-0.90;100.00;103131.38;5078890;28;20541;-68
2024/01/28 01:01:21;;;;;;;23.98;9.65;;;;;;;-0.90;100.00;103123.63;5054472;28;20052;-67
2024/01/28 01:03:49;;;;;;;23.15;8.80;;;;;;;-0.88;100.00;103127.19;5067936;28;20585;-68
2024/01/28 01:06:16;;;;;;;19.00;8.93;;;;;;;-0.83;100.00;103127.44;5067131;28;20040;-67
2024/01/28 01:08:43;;;;;;;21.20;9.10;;;;;;;-0.80;100.00;103123.31;5066153;28;20067;-67
2024/01/28 01:11:11;;;;;;;25.55;9.30;;;;;;;-0.75;100.00;103133.91;5075489;28;20507;-67
2024/01/28 01:13:38;;;;;;;22.13;8.88;;;;;;;-0.74;100.00;103125.31;5067813;28;20465;-67
2024/01/28 01:16:05;;;;;;;20.73;8.80;;;;;;;-0.74;100.00;103140.00;5058637;28;20058;-67
2024/01/28 01:18:32;;;;;;;18.42;8.98;;;;;;;-0.73;100.00;103134.00;5070719;28;20033;-67
2024/01/28 01:21:00;;;;;;;19.38;8.85;;;;;;;-0.74;100.00;103125.31;5065471;28;20136;-66
2024/01/28 01:23:27;;;;;;;19.52;8.95;;;;;;;-0.75;100.00;103123.53;5066035;28;20041;-68
2024/01/28 01:25:54;;;;;;;20.52;8.88;;;;;;;-0.75;100.00;103123.53;5061053;28;20044;-68
2024/01/28 01:28:21;;;;;;;21.25;8.32;;;;;;;-0.75;100.00;103125.25;5066030;28;20119;-68
2024/01/28 01:30:48;;;;;;;22.85;9.10;;;;;;;-0.75;100.00;103120.97;5046345;28;20483;-68
2024/01/28 01:33:16;;;;;;;18.73;8.10;;;;;;;-0.74;100.00;103127.03;5066100;28;20139;-68
2024/01/28 01:35:44;;;;;;;21.80;10.82;;;;;;;-0.75;100.00;103122.66;5082383;28;20071;-68
2024/01/28 01:38:11;;;;;;;22.25;9.60;;;;;;;-0.76;100.00;103121.75;5073855;28;20048;-68
2024/01/28 01:40:38;;;;;;;21.42;10.02;;;;;;;-0.77;100.00;103111.31;5072143;28;20048;-68
2024/01/28 01:43:11;;;;;;;18.65;8.23;;;;;;;-0.79;100.00;103113.84;5074408;28;20048;-68
2024/01/28 01:45:39;;;;;;;17.85;8.02;;;;;;;-0.79;100.00;103126.81;5070044;28;20842;-67
2024/01/28 01:48:12;;;;;;;22.77;8.38;;;;;;;-0.80;100.00;103125.00;5087092;28;20412;-67
2024/01/28 01:50:41;;;;;;;18.00;8.27;;;;;;;-0.80;100.00;103114.66;5078768;28;20415;-66
2024/01/28 01:53:10;;;;;;;16.15;7.80;;;;;;;-0.77;100.00;103124.28;5065329;28;20048;-67
2024/01/28 01:55:40;;;;;;;24.48;8.75;;;;;;;-0.76;100.00;103118.28;5072358;28;20727;-67
2024/01/28 01:58:09;;;;;;;15.45;7.47;;;;;;;-0.77;100.00;103125.19;5068205;28;20500;-67
2024/01/28 02:00:37;;;;;;;21.58;8.65;;;;;;;-0.79;100.00;103117.31;5068404;28;20044;-69
2024/01/28 02:03:05;;;;;;;18.13;8.02;;;;;;;-0.79;100.00;103106.94;5058920;28;20049;-67
2024/01/28 02:05:32;;;;;;;21.95;8.30;;;;;;;-0.79;100.00;103104.38;5070781;28;20123;-67
2024/01/28 02:08:00;;;;;;;18.17;7.53;;;;;;;-0.80;100.00;103100.00;5079910;28;20090;-67
2024/01/28 02:10:27;;;;;;;18.52;8.43;;;;;;;-0.80;100.00;103100.00;5070707;28;20106;-66
2024/01/28 02:12:54;;;;;;;18.15;7.93;;;;;;;-0.79;100.00;103100.91;5069467;28;20095;-66
2024/01/28 02:15:22;;;;;;;20.05;7.57;;;;;;;-0.80;100.00;103104.28;5064277;28;20052;-66
2024/01/28 02:17:49;;;;;;;21.58;7.80;;;;;;;-0.84;100.00;103108.44;5074122;28;20411;-67
2024/01/28 02:20:16;;;;;;;19.70;8.50;;;;;;;-0.88;100.00;103101.28;5069734;28;20478;-66
2024/01/28 02:22:44;;;;;;;14.68;7.10;;;;;;;-0.92;100.00;103114.91;5051487;28;20041;-67
2024/01/28 02:25:11;;;;;;;20.98;7.55;;;;;;;-0.95;100.00;103115.59;5067204;28;20044;-66
2024/01/28 02:27:40;;;;;;;18.80;7.95;;;;;;;-1.00;100.00;103109.31;5074498;28;20094;-66
2024/01/28 02:30:09;;;;;;;17.60;7.60;;;;;;;-1.02;100.00;103103.16;5070820;28;20086;-66
2024/01/28 02:32:36;;;;;;;16.38;7.82;;;;;;;-1.03;100.00;103103.06;5069039;28;20056;-66
2024/01/28 02:35:04;;;;;;;21.35;8.18;;;;;;;-1.07;100.00;103103.69;5067843;28;20081;-67
2024/01/28 02:37:31;;;;;;;18.13;7.90;;;;;;;-1.11;100.00;103106.13;5074562;28;20044;-67
2024/01/28 02:39:58;;;;;;;17.02;8.15;;;;;;;-1.15;100.00;103108.44;5065992;28;20645;-67
2024/01/28 02:42:26;;;;;;;21.15;7.68;;;;;;;-1.17;100.00;103104.91;5067047;28;20098;-66
2024/01/28 02:44:53;;;;;;;25.27;8.32;;;;;;;-1.18;100.00;103111.78;5068220;28;20040;-67
2024/01/28 02:47:20;;;;;;;17.88;7.43;;;;;;;-1.20;100.00;103104.75;5069176;28;20067;-66
2024/01/28 02:49:47;;;;;;;16.45;8.88;;;;;;;-1.28;100.00;103109.47;5067442;28;20102;-67
2024/01/28 02:52:15;;;;;;;15.20;7.97;;;;;;;-1.37;100.00;103099.50;5070137;28;20531;-67
2024/01/28 02:54:42;;;;;;;17.92;8.23;;;;;;;-1.46;100.00;103102.50;5066609;28;20052;-67
2024/01/28 02:57:09;;;;;;;19.13;8.05;;;;;;;-1.50;100.00;103086.72;5060746;28;20109;-67
2024/01/28 02:59:36;;;;;;;18.05;8.57;;;;;;;-1.57;100.00;103082.91;5050854;28;20098;-66
2024/01/28 03:02:03;;;;;;;17.00;7.80;;;;;;;-1.66;100.00;103083.25;5069283;28;20046;-67
2024/01/28 03:04:38;;;;;;;19.60;8.35;;;;;;;-1.72;100.00;103067.41;5036130;28;20079;-67
2024/01/28 03:07:06;;;;;;;20.25;8.32;;;;;;;-1.79;100.00;103068.75;5050003;28;20619;-67
2024/01/28 03:09:34;;;;;;;15.35;7.90;;;;;;;-1.79;100.00;103062.69;5035981;28;20040;-67
2024/01/28 03:12:01;;;;;;;19.40;8.80;;;;;;;-1.81;100.00;103059.13;5068692;28;20059;-67
2024/01/28 03:14:28;;;;;;;19.92;8.18;;;;;;;-1.80;100.00;103043.69;5069360;28;20175;-68
2024/01/28 03:16:55;;;;;;;16.20;8.02;;;;;;;-1.76;100.00;103042.16;5090478;28;20744;-67
2024/01/28 03:19:22;;;;;;;22.00;8.90;;;;;;;-1.75;100.00;103051.72;5089254;28;20047;-68
2024/01/28 03:21:50;;;;;;;16.73;8.50;;;;;;;-1.74;100.00;103053.50;5083353;28;20052;-68
2024/01/28 03:24:17;;;;;;;18.80;9.57;;;;;;;-1.66;100.00;103048.75;5058046;28;20041;-68
2024/01/28 03:26:44;;;;;;;22.00;8.40;;;;;;;-1.61;100.00;103047.28;5065663;28;20036;-67
2024/01/28 03:29:11;;;;;;;20.02;8.70;;;;;;;-1.56;100.00;103045.88;5050255;28;20090;-67
2024/01/28 03:31:40;;;;;;;24.77;9.30;;;;;;;-1.57;100.00;103034.63;5068838;28;20053;-67
2024/01/28 03:34:08;;;;;;;20.90;8.60;;;;;;;-1.56;100.00;103035.53;5069291;28;20110;-67
2024/01/28 03:36:35;;;;;;;17.95;8.75;;;;;;;-1.56;100.00;103028.63;5073806;28;20051;-68
2024/01/28 03:39:04;;;;;;;21.10;9.27;;;;;;;-1.55;100.00;103021.78;5068011;28;20040;-67
2024/01/28 03:41:32;;;;;;;19.63;8.70;;;;;;;-1.56;100.00;103020.88;5059696;28;20059;-67
2024/01/28 03:43:59;;;;;;;19.80;8.20;;;;;;;-1.53;100.00;103027.94;5066813;28;20044;-67
2024/01/28 03:46:26;;;;;;;18.75;8.57;;;;;;;-1.51;100.00;103035.78;5050671;28;20086;-68
2024/01/28 03:48:53;;;;;;;16.23;7.30;;;;;;;-1.49;100.00;103036.75;5068359;28;20101;-67
2024/01/28 03:51:21;;;;;;;17.65;8.20;;;;;;;-1.48;100.00;103029.06;5043061;28;20425;-68
2024/01/28 03:53:48;;;;;;;23.20;7.85;;;;;;;-1.46;100.00;103035.22;5060177;28;20262;-68
2024/01/28 03:56:15;;;;;;;13.02;7.57;;;;;;;-1.48;100.00;103031.66;5060515;28;20040;-68
2024/01/28 03:58:43;;;;;;;25.98;8.32;;;;;;;-1.49;100.00;103041.94;5068266;28;20469;-68
2024/01/28 04:01:10;;;;;;;19.33;8.43;;;;;;;-1.52;100.00;103041.75;5051405;28;20594;-68
2024/01/28 04:03:37;;;;;;;16.20;7.97;;;;;;;-1.52;100.00;103034.00;5066225;28;20071;-67
2024/01/28 04:06:04;;;;;;;21.77;7.88;;;;;;;-1.53;100.00;103035.69;5068727;28;20093;-67
2024/01/28 04:08:31;;;;;;;18.50;7.90;;;;;;;-1.54;100.00;103040.78;5068003;28;20050;-67
2024/01/28 04:10:59;;;;;;;15.35;7.97;;;;;;;-1.58;100.00;103034.53;5066985;28;20068;-67
2024/01/28 04:13:26;;;;;;;22.05;8.20;;;;;;;-1.63;100.00;103030.81;5062290;28;20044;-68
2024/01/28 04:15:53;;;;;;;20.65;8.02;;;;;;;-1.70;100.00;103029.59;5069031;28;20520;-68
2024/01/28 04:18:20;;;;;;;19.23;7.95;;;;;;;-1.69;100.00;103020.13;5067254;28;20045;-68
2024/01/28 04:20:47;;;;;;;16.02;7.88;;;;;;;-1.71;100.00;103022.63;5068547;28;20535;-68
2024/01/28 04:23:15;;;;;;;16.75;7.93;;;;;;;-1.75;100.00;103021.56;5067879;28;20664;-67
2024/01/28 04:25:42;;;;;;;17.40;7.15;;;;;;;-1.77;100.00;103030.03;5067431;28;20115;-67
2024/01/28 04:28:09;;;;;;;17.38;7.97;;;;;;;-1.77;100.00;103025.78;5067953;28;20066;-67
2024/01/28 04:30:36;;;;;;;13.25;7.55;;;;;;;-1.77;100.00;103020.59;5067821;28;20042;-67
2024/01/28 04:33:04;;;;;;;15.85;7.78;;;;;;;-1.71;100.00;103020.03;5066939;28;20056;-67
2024/01/28 04:35:32;;;;;;;17.15;7.45;;;;;;;-1.69;100.00;103010.69;5053041;28;20610;-67
2024/01/28 04:37:59;;;;;;;19.92;8.43;;;;;;;-1.66;100.00;103004.78;5067970;28;20526;-67
2024/01/28 04:40:26;;;;;;;21.00;7.95;;;;;;;-1.63;100.00;102992.03;5075436;28;20037;-67
2024/01/28 04:42:53;;;;;;;22.77;7.80;;;;;;;-1.68;100.00;102994.34;5079928;28;20064;-67
2024/01/28 04:45:20;;;;;;;16.23;8.00;;;;;;;-1.67;100.00;102996.09;5070080;28;20653;-68
2024/01/28 04:47:47;;;;;;;18.52;8.10;;;;;;;-1.67;100.00;102995.22;5067665;28;20508;-67
2024/01/28 04:50:15;;;;;;;17.98;7.30;;;;;;;-1.67;100.00;102990.06;5073351;28;20032;-68
2024/01/28 04:52:42;;;;;;;18.15;6.88;;;;;;;-1.66;100.00;102992.72;5067307;28;20615;-68
2024/01/28 04:55:09;;;;;;;18.27;7.25;;;;;;;-1.67;100.00;102990.94;5064071;28;20614;-67
2024/01/28 04:57:36;;;;;;;16.17;7.10;;;;;;;-1.66;100.00;102989.25;5077310;28;20049;-68
2024/01/28 05:00:05;;;;;;;16.73;7.72;;;;;;;-1.67;100.00;102990.06;5067098;28;20045;-67
2024/01/28 05:02:33;;;;;;;16.95;7.63;;;;;;;-1.67;100.00;102997.81;5047357;28;20037;-67
2024/01/28 05:05:00;;;;;;;18.30;7.40;;;;;;;-1.73;100.00;102994.06;5072947;28;20046;-67
2024/01/28 05:07:27;;;;;;;14.57;7.97;;;;;;;-1.78;100.00;102994.66;5083794;28;20046;-67
2024/01/28 05:09:54;;;;;;;16.23;7.35;;;;;;;-1.83;100.00;102988.31;5088420;28;20115;-68
2024/01/28 05:12:21;;;;;;;20.75;7.63;;;;;;;-1.88;100.00;102986.38;5090847;28;20044;-68
2024/01/28 05:14:49;;;;;;;13.35;6.95;;;;;;;-1.88;100.00;102980.31;5052908;28;20041;-68
2024/01/28 05:17:16;;;;;;;14.02;7.18;;;;;;;-1.92;100.00;102973.19;5069004;28;20049;-68
2024/01/28 05:19:43;;;;;;;15.02;7.53;;;;;;;-1.94;100.00;102967.06;5072181;28;20739;-68
2024/01/28 05:22:10;;;;;;;16.23;7.68;;;;;;;-1.99;100.00;102959.06;5071604;28;20048;-68
2024/01/28 05:24:37;;;;;;;14.25;7.70;;;;;;;-2.05;100.00;102956.09;5069127;28;20040;-68
2024/01/28 05:27:04;;;;;;;12.02;7.32;;;;;;;-2.10;100.00;102957.56;5072001;28;20455;-67
2024/01/28 05:29:33;;;;;;;17.88;7.70;;;;;;;-2.13;100.00;102957.38;5087808;28;20060;-67
2024/01/28 05:32:00;;;;;;;14.65;7.78;;;;;;;-2.12;100.00;102954.88;5070135;28;20552;-67
2024/01/28 05:34:27;;;;;;;13.45;7.15;;;;;;;-2.12;100.00;102951.41;5060115;28;20121;-67
2024/01/28 05:36:54;;;;;;;15.70;8.05;;;;;;;-2.12;100.00;102948.81;5070489;28;20466;-68
2024/01/28 05:39:21;;;;;;;17.45;7.43;;;;;;;-2.13;100.00;102945.31;5069618;28;20509;-67
2024/01/28 05:41:48;;;;;;;15.70;7.53;;;;;;;-2.11;100.00;102954.06;5068736;28;20545;-67
2024/01/28 05:44:18;;;;;;;12.90;6.70;;;;;;;-2.12;100.00;102948.81;5069510;28;20493;-67
2024/01/28 05:46:45;;;;;;;19.77;7.05;;;;;;;-2.10;100.00;102942.06;5051601;28;20047;-67
2024/01/28 05:49:13;;;;;;;17.27;6.78;;;;;;;-2.08;100.00;102958.50;5069404;28;20411;-68
2024/01/28 05:51:40;;;;;;;17.35;7.00;;;;;;;-2.04;100.00;102958.78;5067293;28;20040;-68
2024/01/28 05:54:08;;;;;;;18.35;8.18;;;;;;;-1.99;100.00;102956.47;5068514;28;20166;-68
2024/01/28 05:56:35;;;;;;;18.05;6.68;;;;;;;-1.98;100.00;102957.34;5066375;28;20469;-68
2024/01/28 05:59:02;;;;;;;21.52;7.18;;;;;;;-1.95;100.00;102953.22;5069004;28;20060;-68
2024/01/28 06:01:29;;;;;;;15.75;6.55;;;;;;;-1.92;100.00;102937.88;5069515;28;20102;-67
2024/01/28 06:03:56;;;;;;;16.08;6.60;;;;;;;-1.84;100.00;102930.56;5068808;28;20086;-68
2024/01/28 06:06:23;;;;;;;16.67;6.88;;;;;;;-1.82;100.00;102926.34;5069605;28;20045;-68
2024/01/28 06:08:51;;;;;;;18.20;6.97;;;;;;;-1.82;100.00;102926.34;5068096;28;20131;-68
2024/01/28 06:11:18;;;;;;;17.83;6.78;;;;;;;-1.84;100.00;102915.03;5068400;28;20061;-68
2024/01/28 06:13:45;;;;;;;14.35;7.85;;;;;;;-1.81;100.00;102914.31;5069386;28;20499;-67
2024/01/28 06:16:12;;;;;;;14.48;6.70;;;;;;;-1.81;100.00;102911.72;5051501;28;20036;-68
2024/01/28 06:18:43;;;;;;;16.65;6.97;;;;;;;-1.79;100.00;102908.41;5053399;28;20139;-67
2024/01/28 06:21:12;;;;;;;17.40;6.72;;;;;;;-1.76;100.00;102905.09;5069789;28;20037;-68
2024/01/28 06:23:42;;;;;;;13.82;6.75;;;;;;;-1.75;100.00;102902.59;5069160;28;20408;-68
2024/01/28 06:26:09;;;;;;;14.55;6.50;;;;;;;-1.76;100.00;102908.59;5050438;28;20036;-68
2024/01/28 06:28:36;;;;;;;14.27;6.18;;;;;;;-1.74;100.00;102903.47;5069569;28;20059;-68
2024/01/28 06:31:04;;;;;;;16.02;6.57;;;;;;;-1.74;100.00;102896.63;5067742;28;20086;-68
2024/01/28 06:33:31;;;;;;;19.17;6.57;;;;;;;-1.74;100.00;102895.72;5069168;28;20048;-68
2024/01/28 06:35:58;;;;;;;15.38;6.18;;;;;;;-1.73;100.00;102884.56;5069323;28;20135;-67
2024/01/28 06:38:25;;;;;;;16.60;6.38;;;;;;;-1.74;100.00;102883.69;5072832;28;20481;-68
2024/01/28 06:40:52;;;;;;;13.93;7.05;;;;;;;-1.73;100.00;102888.03;5068805;28;20115;-67
2024/01/28 06:43:19;;;;;;;19.92;6.22;;;;;;;-1.73;100.00;102882.00;5035786;28;20587;-67
2024/01/28 06:45:47;;;;;;;14.10;7.00;;;;;;;-1.74;100.00;102880.19;5051568;28;20047;-67
2024/01/28 06:48:14;;;;;;;13.65;5.97;;;;;;;-1.74;100.00;102883.69;5070641;28;20056;-67
2024/01/28 06:50:42;;;;;;;13.27;6.47;;;;;;;-1.72;100.00;102870.84;5072545;28;20067;-66
2024/01/28 06:53:09;;;;;;;17.58;6.28;;;;;;;-1.69;100.00;102867.53;5072065;28;20131;-66
2024/01/28 06:55:36;;;;;;;12.80;6.00;;;;;;;-1.66;100.00;102868.56;5071779;28;20713;-67
2024/01/28 06:58:04;;;;;;;14.18;5.63;;;;;;;-1.63;100.00;102860.97;5069480;28;20041;-67
2024/01/28 07:00:31;;;;;;;14.73;5.43;;;;;;;-1.57;100.00;102853.53;5071559;28;20090;-67
2024/01/28 07:02:58;;;;;;;11.98;5.43;;;;;;;-1.54;100.00;102849.31;5067674;28;20040;-67
2024/01/28 07:05:25;;;;;;;12.25;5.25;;;;;;;-1.52;100.00;102860.66;5068886;28;20070;-67
2024/01/28 07:07:52;;;;;;;15.57;5.85;;;;;;;-1.52;100.00;102848.59;5068518;28;20033;-68
2024/01/28 07:10:19;;;;;;;11.15;4.85;;;;;;;-1.51;100.00;102859.84;5067667;28;20127;-67
2024/01/28 07:12:46;;;;;;;15.52;6.13;;;;;;;-1.50;100.00;102865.09;5068831;28;20059;-67
2024/01/28 07:15:14;;;;;;;12.30;5.68;;;;;;;-1.50;100.00;102861.63;5050387;28;20063;-67
2024/01/28 07:17:41;;;;;;;14.95;5.30;;;;;;;-1.51;100.00;102854.66;5067859;28;20423;-67
2024/01/28 07:20:09;;;;;;;14.05;5.88;;;;;;;-1.52;100.00;102855.47;5050607;28;20117;-68
2024/01/28 07:22:37;;;;;;;15.70;5.95;;;;;;;-1.49;100.00;102860.81;5065175;28;20053;-68
2024/01/28 07:25:04;;;;;;;13.80;5.15;;;;;;;-1.47;100.00;102861.75;5067711;28;20123;-68
2024/01/28 07:27:31;;;;;;;11.50;5.43;;;;;;;-1.44;100.00;102862.84;5067437;28;20412;-69
2024/01/28 07:29:58;;;;;;;10.13;4.88;;;;;;;-1.41;100.00;102864.69;5070533;28;20040;-70
2024/01/28 07:32:26;;;;;;;20.30;5.93;;;;;;;-1.36;100.00;102867.50;5074250;28;20087;-68
2024/01/28 07:34:53;;;;;;;11.73;5.10;;;;;;;-1.30;100.00;102872.97;5066037;28;20037;-68
2024/01/28 07:37:20;;;;;;;14.48;6.30;;;;;;;-1.24;100.00;102873.31;5065622;28;20594;-68
2024/01/28 07:39:47;;;;;;;10.48;5.20;;;;;;;-1.17;100.00;102872.81;5060997;28;20511;-68
2024/01/28 07:42:15;;;;;;;11.32;5.35;;;;;;;-1.06;100.00;102872.47;5056413;28;20067;-68
2024/01/28 07:44:45;;;;;;;12.77;5.50;;;;;;;-0.99;100.00;102867.69;5067509;28;20127;-68
2024/01/28 07:47:12;;;;;;;14.77;5.38;;;;;;;-0.90;100.00;102867.22;5069962;28;20094;-68
2024/01/28 07:49:39;;;;;;;20.65;7.65;;;;;;;-0.80;100.00;102866.00;5069843;28;20041;-68
2024/01/28 07:52:06;;;;;;;16.05;6.05;;;;;;;-0.65;100.00;102865.84;5067869;28;20122;-68
2024/01/28 07:54:33;;;;;;;14.40;5.50;;;;;;;-0.53;100.00;102870.72;5067802;28;20040;-68
2024/01/28 07:57:02;;;;;;;13.10;4.95;;;;;;;-0.43;100.00;102853.94;5068351;28;20656;-68
2024/01/28 07:59:29;;;;;;;13.88;4.85;;;;;;;-0.35;100.00;102852.59;5068309;28;20072;-68
2024/01/28 08:01:56;;;;;;;7.90;4.93;;;;;;;-0.35;100.00;102850.00;5049405;28;20123;-68
2024/01/28 08:04:24;;;;;;;13.10;5.40;;;;;;;-0.34;100.00;102847.47;5073315;28;20583;-68
2024/01/28 08:06:51;;;;;;;16.17;5.28;;;;;;;-0.33;100.00;102850.97;5065518;28;20085;-68
2024/01/28 08:09:18;;;;;;;12.95;4.90;;;;;;;-0.32;100.00;102853.59;5071381;28;20050;-68
2024/01/28 08:11:45;;;;;;;10.68;5.07;;;;;;;-0.26;100.00;102847.81;5067416;28;20045;-68
2024/01/28 08:14:13;;;;;;;12.10;5.13;;;;;;;-0.23;100.00;102842.78;5064105;28;20454;-68
2024/01/28 08:16:40;;;;;;;10.07;4.63;;;;;;;-0.19;100.00;102846.41;5055200;28;20063;-68
2024/01/28 08:19:08;;;;;;;10.93;5.15;;;;;;;-0.17;100.00;102853.44;5072384;28;20187;-68
2024/01/28 08:21:36;;;;;;;10.25;4.80;;;;;;;-0.11;100.00;102857.16;5066895;28;20511;-68
2024/01/28 08:24:03;;;;;;;9.05;4.47;;;;;;;-0.06;100.00;102846.16;5056386;28;20079;-68
2024/01/28 08:26:30;;;;;;;14.82;5.35;;;;;;;0.03;100.00;102847.41;5065761;28;20052;-68
2024/01/28 08:28:58;;;;;;;10.48;4.80;;;;;;;0.13;100.00;102844.41;5069798;28;20060;-68
2024/01/28 08:31:25;;;;;;;12.90;4.72;;;;;;;0.20;100.00;102851.63;5064874;28;20640;-67
2024/01/28 08:33:52;;;;;;;11.13;5.07;;;;;;;0.28;100.00;102849.38;5075395;28;20074;-67
2024/01/28 08:36:20;;;;;;;11.20;4.85;;;;;;;0.37;100.00;102856.69;5057130;28;20119;-67
2024/01/28 08:38:47;;;;;;;12.25;5.00;;;;;;;0.45;100.00;102856.22;5048147;28;20487;-67
2024/01/28 08:41:14;;;;;;;14.00;5.28;;;;;;;0.56;100.00;102861.84;5072243;28;20128;-67
2024/01/28 08:43:43;;;;;;;11.40;4.78;;;;;;;0.67;100.00;102862.34;5065335;28;20076;-67
2024/01/28 08:46:11;;;;;;;14.93;5.72;;;;;;;0.76;100.00;102854.94;5058438;28;20566;-67
2024/01/28 08:48:38;;;;;;;14.88;5.25;;;;;;;0.83;100.00;102856.09;5066282;28;20611;-67
2024/01/28 08:51:06;;;;;;;14.23;5.43;;;;;;;0.90;100.00;102849.44;5069658;28;20036;-67
2024/01/28 08:53:33;;;;;;;11.75;5.00;;;;;;;0.98;100.00;102852.34;5049327;28;20039;-67
2024/01/28 08:56:00;;;;;;;9.93;5.05;;;;;;;1.05;100.00;102842.28;5068124;28;20041;-67
2024/01/28 08:58:28;;;;;;;10.02;4.97;;;;;;;1.12;100.00;102835.63;5053945;28;20101;-67
2024/01/28 09:00:55;;;;;;;9.57;4.88;;;;;;;1.20;100.00;102833.34;5079348;28;20449;-67
2024/01/28 09:03:23;;;;;;;10.00;5.03;;;;;;;1.28;100.00;102831.94;5042756;28;20071;-66
2024/01/28 09:05:50;;;;;;;13.57;5.57;;;;;;;1.35;100.00;102835.69;5081704;28;20043;-67
2024/01/28 09:08:18;;;;;;;15.98;5.88;;;;;;;1.43;100.00;102826.47;5081701;28;20695;-67
2024/01/28 09:10:45;;;;;;;9.43;5.03;;;;;;;1.50;100.00;102825.00;5058813;28;20456;-66
2024/01/28 09:13:12;;;;;;;11.23;5.50;;;;;;;1.60;100.00;102815.81;5064780;28;20102;-67
2024/01/28 09:15:39;;;;;;;13.75;5.07;;;;;;;1.70;100.00;102825.75;5068651;28;20048;-67
2024/01/28 09:18:06;;;;;;;14.93;5.97;;;;;;;1.78;100.00;102821.72;5066667;28;20048;-67
2024/01/28 09:20:33;;;;;;;13.95;6.43;;;;;;;1.87;100.00;102826.41;5065642;28;20118;-67
2024/01/28 09:23:03;;;;;;;13.18;6.85;;;;;;;1.96;100.00;102823.25;5050240;28;20516;-67
2024/01/28 09:25:32;;;;;;;82.13;40.25;;;;;;;2.05;100.00;102821.00;5068617;28;20131;-66
2024/01/28 09:28:00;;;;;;;30.70;21.90;;;;;;;2.13;100.00;102816.97;5062901;28;20036;-67
2024/01/28 09:30:27;;;;;;;13.77;8.23;;;;;;;2.22;100.00;102815.50;5061260;28;20043;-67
2024/01/28 09:32:55;;;;;;;14.88;6.75;;;;;;;2.30;100.00;102819.28;5065039;28;20055;-67
2024/01/28 09:35:22;;;;;;;19.02;12.77;;;;;;;2.38;100.00;102814.34;5062770;28;20071;-67
2024/01/28 09:37:50;;;;;;;10.68;4.43;;;;;;;2.48;100.00;102816.44;5063545;28;20131;-67
2024/01/28 09:40:17;;;;;;;11.77;5.78;;;;;;;2.56;100.00;102812.38;5050427;28;20524;-66
2024/01/28 09:43:18;;;;;;;10.80;6.20;;;;;;;2.69;100.00;102810.19;5056649;28;20040;-67
2024/01/28 09:45:45;;;;;;;11.63;4.40;;;;;;;2.79;100.00;102823.59;5062094;28;20119;-66
2024/01/28 09:48:13;;;;;;;9.73;4.88;;;;;;;2.89;100.00;102827.38;5064812;28;20055;-66
2024/01/28 09:50:41;;;;;;;8.52;4.38;;;;;;;2.99;100.00;102827.69;5063780;28;20064;-67
2024/01/28 09:53:10;;;;;;;13.20;5.70;;;;;;;3.09;100.00;102819.34;5066878;28;20043;-67
2024/01/28 09:55:37;;;;;;;11.15;4.20;;;;;;;3.20;100.00;102819.69;5063302;28;20041;-66
2024/01/28 09:58:05;;;;;;;10.02;4.18;;;;;;;3.30;100.00;102810.44;5048283;28;20037;-66
2024/01/28 10:00:32;;;;;;;11.07;4.05;;;;;;;3.39;97.89;102809.00;5066971;28;20593;-67
2024/01/28 10:02:59;;;;;;;7.60;4.10;;;;;;;3.47;98.18;102810.97;5070265;28;20044;-66
2024/01/28 10:05:26;;;;;;;6.90;4.10;;;;;;;3.57;98.62;102813.88;5050867;28;20045;-67
2024/01/28 10:08:05;;;;;;;9.95;3.78;;;;;;;3.70;97.53;102802.13;5052140;28;20052;-67
2024/01/28 10:10:36;;;;;;;7.82;4.25;;;;;;;3.80;96.82;102810.22;5074662;28;20457;-67
2024/01/28 10:13:04;;;;;;;9.10;4.03;;;;;;;3.88;96.20;102795.66;5071253;28;20415;-67
2024/01/28 10:15:31;;;;;;;8.23;4.20;;;;;;;3.96;95.79;102793.28;5068671;28;20080;-67
2024/01/28 10:17:59;;;;;;;9.43;3.63;;;;;;;4.05;94.10;102793.53;5066751;28;20065;-67
2024/01/28 10:20:30;;;;;;;8.07;3.85;;;;;;;4.15;94.42;102794.66;5069492;28;20052;-67
2024/01/28 10:23:00;;;;;;;8.68;3.90;;;;;;;4.24;94.94;102794.91;5069850;28;20040;-67
2024/01/28 10:25:27;;;;;;;7.28;4.13;;;;;;;4.33;94.70;102789.94;5043960;28;20090;-67
2024/01/28 10:27:54;;;;;;;17.08;9.02;;;;;;;4.42;93.72;102789.31;5069871;28;20052;-67
2024/01/28 10:30:22;;;;;;;9.98;4.90;;;;;;;4.50;93.58;102784.28;5069552;28;20095;-67
2024/01/28 10:32:50;;;;;;;9.43;5.03;;;;;;;4.58;93.09;102781.91;5070239;28;20044;-66
2024/01/28 10:35:17;;;;;;;9.00;3.95;;;;;;;4.65;92.48;102779.44;5069618;28;20097;-66
2024/01/28 10:37:52;;;;;;;7.30;3.78;;;;;;;4.76;91.65;102784.97;5028792;28;20053;-66
2024/01/28 10:40:20;;;;;;;11.68;4.07;;;;;;;4.84;89.64;102776.41;5070029;28;20139;-66
2024/01/28 10:42:49;;;;;;;8.77;3.35;;;;;;;4.92;88.40;102780.09;5068432;28;20041;-66
2024/01/28 10:45:23;;;;;;;9.88;3.70;;;;;;;4.99;88.79;102763.72;5072646;28;20074;-66
2024/01/28 10:47:59;;;;;;;6.50;3.38;;;;;;;5.08;88.87;102765.66;5069836;28;20072;-66
2024/01/28 10:50:32;;;;;;;11.27;5.85;;;;;;;5.16;89.34;102758.88;5070020;28;20044;-66
2024/01/28 10:53:03;;;;;;;9.52;3.80;;;;;;;5.27;87.79;102759.16;5073691;28;20131;-67
2024/01/28 10:55:31;;;;;;;11.40;3.90;;;;;;;5.35;85.52;102761.91;5075359;28;20419;-66
2024/01/28 10:57:59;;;;;;;7.15;4.70;;;;;;;5.41;84.87;102743.75;5075330;28;20043;-66
2024/01/28 11:00:28;;;;;;;6.85;3.60;;;;;;;5.46;84.78;102744.72;5069638;28;20937;-66
2024/01/28 11:02:59;;;;;;;7.50;3.22;;;;;;;5.53;85.25;102738.78;5077705;28;20046;-66
2024/01/28 11:05:27;;;;;;;8.40;3.50;;;;;;;5.63;84.61;102737.22;5071223;28;20048;-66
2024/01/28 11:07:59;;;;;;;12.20;3.70;;;;;;;5.71;84.41;102732.16;5071972;28;20075;-66
2024/01/28 11:10:28;;;;;;;8.85;3.97;;;;;;;5.79;83.93;102738.41;5055525;28;20113;-66
2024/01/28 11:12:56;;;;;;;8.45;3.83;;;;;;;5.87;82.61;102722.88;5067818;28;20140;-66
2024/01/28 11:15:26;;;;;;;13.95;6.80;;;;;;;5.94;82.78;102721.25;5069027;28;20072;-66